createdAt,value
2022-08-17T00:01:32.758Z,57.14
2022-08-17T00:04:19.122Z,56.27
2022-08-17T00:06:45.903Z,56.41
2022-08-17T00:09:18.245Z,56.31
2022-08-17T00:12:40.387Z,56.63
2022-08-17T00:14:36.005Z,56.42
2022-08-17T00:17:04.537Z,56.62
2022-08-17T00:19:32.550Z,56.70
2022-08-17T00:22:34.232Z,56.43
2022-08-17T00:24:47.205Z,56.11
2022-08-17T00:27:13.762Z,56.50
2022-08-17T00:29:40.500Z,56.45
2022-08-17T00:33:15.641Z,56.88
2022-08-17T00:34:53.672Z,56.55
2022-08-17T00:37:20.130Z,55.79
2022-08-17T00:39:46.680Z,56.24
2022-08-17T00:42:18.059Z,55.97
2022-08-17T00:44:45.353Z,56.11
2022-08-17T00:47:11.850Z,55.96
2022-08-17T00:49:38.312Z,56.39
2022-08-17T00:52:15.317Z,56.31
2022-08-17T00:54:45.018Z,56.51
2022-08-17T00:57:18.384Z,56.40
2022-08-17T00:59:56.040Z,56.58
2022-08-17T01:02:34.979Z,56.02
2022-08-17T01:05:25.424Z,55.44
2022-08-17T01:07:53.395Z,55.33
2022-08-17T01:10:58.300Z,55.61
2022-08-17T01:13:14.097Z,55.36
2022-08-17T01:15:46.455Z,55.31
2022-08-17T01:18:14.194Z,55.72
2022-08-17T01:20:51.945Z,55.62
2022-08-17T01:23:21.326Z,55.83
2022-08-17T01:26:06.445Z,55.95
2022-08-17T01:28:54.397Z,56.88
2022-08-17T01:31:21.218Z,57.00
2022-08-17T01:33:47.684Z,56.69
2022-08-17T01:36:14.190Z,56.46
2022-08-17T01:38:40.664Z,56.73
2022-08-17T01:41:13.361Z,57.49
2022-08-17T01:43:45.202Z,57.75
2022-08-17T01:46:18.622Z,57.08
2022-08-17T01:48:47.424Z,56.66
2022-08-17T01:51:15.564Z,57.28
2022-08-17T01:53:47.317Z,57.26
2022-08-17T01:56:18.825Z,57.12
2022-08-17T01:58:45.804Z,56.17
2022-08-17T02:01:14.741Z,56.41
2022-08-17T02:03:41.891Z,56.21
2022-08-17T02:06:28.144Z,55.95
2022-08-17T02:09:01.526Z,56.22
2022-08-17T02:11:30.342Z,56.12
2022-08-17T02:14:02.770Z,56.05
2022-08-17T02:16:37.376Z,56.07
2022-08-17T02:19:14.309Z,56.29
2022-08-17T02:21:44.358Z,56.09
2022-08-17T02:24:17.419Z,56.17
2022-08-17T02:27:04.457Z,56.14
2022-08-17T02:29:31.160Z,56.28
2022-08-17T02:31:58.538Z,56.21
2022-08-17T02:34:26.211Z,56.33
2022-08-17T02:36:53.325Z,56.04
2022-08-17T02:39:19.967Z,56.04
2022-08-17T02:41:46.565Z,56.27
2022-08-17T02:44:13.561Z,56.63
2022-08-17T02:47:00.565Z,56.70
2022-08-17T02:49:27.103Z,56.69
2022-08-17T02:51:53.602Z,56.65
2022-08-17T02:54:40.871Z,57.01
2022-08-17T02:57:06.577Z,56.65
2022-08-17T02:59:33.023Z,56.42
2022-08-17T03:01:59.489Z,56.17
2022-08-17T03:04:26.103Z,56.36
2022-08-17T03:06:52.752Z,56.34
2022-08-17T03:09:19.219Z,56.45
2022-08-17T03:11:45.682Z,56.57
2022-08-17T03:14:13.055Z,56.26
2022-08-17T03:16:40.992Z,56.31
2022-08-17T03:19:09.205Z,56.09
2022-08-17T03:21:36.312Z,56.27
2022-08-17T03:24:08.765Z,56.39
2022-08-17T03:26:35.778Z,56.56
2022-08-17T03:29:02.245Z,56.53
2022-08-17T03:31:28.737Z,57.11
2022-08-17T03:33:56.232Z,57.57
2022-08-17T03:36:23.127Z,59.91
2022-08-17T03:38:49.571Z,61.74
2022-08-17T03:41:17.848Z,61.11
2022-08-17T03:43:44.294Z,59.12
2022-08-17T03:46:34.162Z,58.85
2022-08-17T03:49:26.082Z,58.83
2022-08-17T03:52:12.976Z,60.72
2022-08-17T03:54:59.267Z,64.31
2022-08-17T03:57:26.120Z,62.64
2022-08-17T03:59:53.753Z,60.64
2022-08-17T04:02:32.552Z,59.57
2022-08-17T04:05:00.217Z,59.44
2022-08-17T04:07:29.709Z,59.19
2022-08-17T04:09:57.822Z,59.30
2022-08-17T04:12:30.488Z,60.26
2022-08-17T04:14:57.361Z,61.81
2022-08-17T04:17:27.147Z,61.35
2022-08-17T04:19:55.309Z,60.10
2022-08-17T04:22:31.045Z,60.27
2022-08-17T04:25:04.779Z,59.06
2022-08-17T04:27:31.724Z,58.68
2022-08-17T04:29:58.647Z,58.40
2022-08-17T04:33:00.786Z,58.32
2022-08-17T04:35:11.665Z,58.05
2022-08-17T04:37:38.195Z,57.69
2022-08-17T04:40:27.192Z,57.58
2022-08-17T04:43:02.733Z,56.99
2022-08-17T04:45:32.302Z,56.82
2022-08-17T04:48:00.049Z,56.46
2022-08-17T04:50:27.155Z,57.29
2022-08-17T04:52:53.896Z,56.62
2022-08-17T04:55:20.599Z,56.37
2022-08-17T05:00:22.415Z,56.19
2022-08-17T05:02:50.952Z,56.61
2022-08-17T05:05:24.809Z,56.16
2022-08-17T05:07:54.366Z,55.60
2022-08-17T05:10:26.500Z,55.58
2022-08-17T05:13:01.057Z,56.29
2022-08-17T05:15:29.598Z,56.47
2022-08-17T05:17:59.873Z,55.35
2022-08-17T05:20:27.715Z,54.22
2022-08-17T05:23:00.905Z,56.31
2022-08-17T05:25:33.296Z,54.70
2022-08-17T05:28:03.240Z,54.98
2022-08-17T05:30:29.757Z,54.96
2022-08-17T05:32:56.490Z,54.86
2022-08-17T05:35:23.572Z,54.26
2022-08-17T05:37:50.690Z,55.08
2022-08-17T05:40:18.183Z,54.46
2022-08-17T05:42:44.664Z,53.78
2022-08-17T05:45:11.296Z,53.91
2022-08-17T05:47:42.423Z,53.59
2022-08-17T05:50:10.587Z,53.32
2022-08-17T05:53:10.353Z,53.07
2022-08-17T05:55:52.732Z,53.53
2022-08-17T05:58:19.095Z,53.39
2022-08-17T06:00:50.767Z,54.18
2022-08-17T06:03:43.050Z,52.63
2022-08-17T06:06:31.203Z,52.01
2022-08-17T06:09:12.902Z,51.24
2022-08-17T06:11:53.471Z,51.67
2022-08-17T06:14:36.468Z,50.93
2022-08-17T06:17:08.458Z,50.29
2022-08-17T06:19:52.486Z,50.80
2022-08-17T06:22:22.385Z,51.92
2022-08-17T06:25:10.326Z,50.04
2022-08-17T06:27:46.257Z,49.65
2022-08-17T06:30:24.804Z,49.17
2022-08-17T06:32:52.887Z,51.09
2022-08-17T06:35:31.873Z,52.58
2022-08-17T06:38:37.413Z,49.14
2022-08-17T06:41:05.041Z,50.04
2022-08-17T06:43:53.515Z,49.04
2022-08-17T06:46:41.857Z,48.94
2022-08-17T06:49:17.640Z,48.30
2022-08-17T06:51:58.041Z,49.83
2022-08-17T06:54:55.615Z,47.92
2022-08-17T06:57:28.957Z,47.40
2022-08-17T06:59:58.506Z,47.42
2022-08-17T07:02:51.950Z,48.49
2022-08-17T07:05:47.579Z,47.82
2022-08-17T07:08:35.135Z,47.70
2022-08-17T07:11:15.796Z,46.42
2022-08-17T07:13:51.367Z,46.85
2022-08-17T07:16:32.432Z,49.68
2022-08-17T07:18:59.989Z,45.83
2022-08-17T07:21:33.811Z,43.48
2022-08-17T07:24:05.996Z,44.92
2022-08-17T07:26:32.575Z,44.96
2022-08-17T07:29:00.658Z,44.13
2022-08-17T07:31:31.534Z,42.07
2022-08-17T07:34:14.448Z,45.59
2022-08-17T07:36:42.090Z,42.95
2022-08-17T07:39:10.035Z,41.61
2022-08-17T07:41:57.276Z,42.28
2022-08-17T07:44:25.686Z,43.79
2022-08-17T07:47:12.537Z,41.83
2022-08-17T07:49:46.056Z,40.29
2022-08-17T07:52:50.464Z,40.11
2022-08-17T07:55:29.288Z,39.03
2022-08-17T07:57:58.402Z,38.73
2022-08-17T08:00:32.266Z,40.40
2022-08-17T08:03:18.530Z,38.85
2022-08-17T08:05:54.814Z,37.87
2022-08-17T08:08:23.788Z,37.63
2022-08-17T08:11:10.566Z,39.33
2022-08-17T08:13:42.605Z,38.17
2022-08-17T08:16:25.733Z,40.17
2022-08-17T08:18:59.093Z,39.28
2022-08-17T08:21:46.648Z,41.86
2022-08-17T08:24:13.074Z,42.46
2022-08-17T08:26:46.700Z,42.73
2022-08-17T08:29:43.900Z,43.45
2022-08-17T08:32:29.621Z,40.57
2022-08-17T08:35:06.489Z,40.43
2022-08-17T08:37:56.575Z,37.64
2022-08-17T08:40:53.420Z,37.69
2022-08-17T08:43:38.730Z,38.57
2022-08-17T08:46:11.356Z,40.02
2022-08-17T08:48:57.110Z,40.84
2022-08-17T08:51:31.112Z,43.40
2022-08-17T08:54:11.706Z,42.78
2022-08-17T08:57:21.421Z,39.99
2022-08-17T09:00:14.641Z,38.65
2022-08-17T09:02:53.290Z,41.86
2022-08-17T09:05:31.981Z,40.61
2022-08-17T09:08:12.794Z,41.04
2022-08-17T09:10:53.144Z,39.73
2022-08-17T09:13:22.651Z,40.27
2022-08-17T09:16:06.713Z,39.31
2022-08-17T09:18:59.260Z,38.35
2022-08-17T09:21:38.096Z,38.98
2022-08-17T09:24:20.718Z,37.36
2022-08-17T09:26:50.094Z,37.23
2022-08-17T09:29:17.674Z,36.36
2022-08-17T09:31:51.176Z,34.83
2022-08-17T09:34:22.136Z,36.88
2022-08-17T09:37:07.507Z,34.76
2022-08-17T09:39:46.512Z,34.54
2022-08-17T09:42:24.086Z,34.17
2022-08-17T09:45:09.733Z,33.94
2022-08-17T09:48:09.996Z,33.66
2022-08-17T09:51:04.034Z,33.44
2022-08-17T09:53:35.611Z,33.03
2022-08-17T09:56:29.541Z,33.89
2022-08-17T09:59:17.422Z,34.86
2022-08-17T10:01:50.491Z,34.31
2022-08-17T10:04:20.358Z,34.84
2022-08-17T10:06:50.017Z,33.13
2022-08-17T10:09:39.995Z,32.66
2022-08-17T10:12:36.610Z,33.04
2022-08-17T10:15:17.480Z,32.14
2022-08-17T10:18:07.807Z,32.99
2022-08-17T10:20:49.526Z,32.80
2022-08-17T10:23:45.773Z,34.01
2022-08-17T10:26:18.774Z,32.94
2022-08-17T10:29:06.554Z,32.45
2022-08-17T10:32:00.718Z,31.07
2022-08-17T10:34:41.264Z,28.22
2022-08-17T10:37:08.336Z,27.71
2022-08-17T10:39:53.962Z,28.51
2022-08-17T10:42:50.146Z,27.94
2022-08-17T10:45:26.123Z,28.80
2022-08-17T10:48:08.235Z,27.68
2022-08-17T10:50:44.038Z,27.79
2022-08-17T10:53:10.710Z,28.67
2022-08-17T10:55:39.091Z,27.15
2022-08-17T10:58:21.025Z,25.92
2022-08-17T11:00:53.428Z,28.00
2022-08-17T11:03:23.697Z,28.42
2022-08-17T11:05:55.659Z,26.40
2022-08-17T11:09:03.561Z,26.57
2022-08-17T11:11:47.312Z,26.63
2022-08-17T11:14:25.855Z,26.63
2022-08-17T11:17:12.838Z,25.84
2022-08-17T11:19:48.337Z,27.18
2022-08-17T11:22:36.549Z,28.10
2022-08-17T11:25:15.107Z,26.46
2022-08-17T11:27:43.927Z,27.22
2022-08-17T11:30:57.008Z,26.11
2022-08-17T11:33:29.771Z,27.36
2022-08-17T11:36:17.543Z,25.77
2022-08-17T11:38:57.810Z,26.37
2022-08-17T11:41:55.367Z,26.01
2022-08-17T11:44:43.483Z,25.83
2022-08-17T11:47:36.461Z,25.80
2022-08-17T11:50:47.753Z,27.46
2022-08-17T11:53:39.093Z,25.79
2022-08-17T11:56:28.823Z,25.53
2022-08-17T11:58:55.859Z,26.09
2022-08-17T12:01:22.623Z,26.98
2022-08-17T12:03:55.492Z,27.39
2022-08-17T12:06:31.883Z,27.29
2022-08-17T12:09:16.658Z,25.47
2022-08-17T12:12:12.500Z,25.86
2022-08-17T12:15:10.141Z,26.70
2022-08-17T12:17:40.140Z,25.26
2022-08-17T12:20:11.292Z,26.37
2022-08-17T12:22:57.588Z,26.04
2022-08-17T12:25:33.393Z,26.54
2022-08-17T12:28:06.771Z,25.37
2022-08-17T12:30:35.370Z,25.51
2022-08-17T12:33:02.499Z,27.14
2022-08-17T12:35:34.551Z,25.40
2022-08-17T12:38:03.550Z,26.12
2022-08-17T12:40:32.510Z,25.85
2022-08-17T12:43:06.578Z,25.71
2022-08-17T12:45:39.645Z,25.65
2022-08-17T12:48:21.682Z,25.14
2022-08-17T12:50:50.331Z,26.09
2022-08-17T12:53:25.157Z,24.95
2022-08-17T12:55:52.332Z,24.99
2022-08-17T12:58:21.739Z,25.16
2022-08-17T13:01:15.776Z,25.22
2022-08-17T13:03:52.765Z,25.04
2022-08-17T13:06:34.939Z,25.02
2022-08-17T13:09:24.190Z,24.98
2022-08-17T13:12:02.966Z,26.27
2022-08-17T13:14:32.539Z,25.95
2022-08-17T13:17:02.357Z,25.20
2022-08-17T13:19:40.117Z,25.23
2022-08-17T13:22:11.753Z,25.04
2022-08-17T13:24:38.901Z,26.06
2022-08-17T13:27:11.798Z,24.90
2022-08-17T13:29:51.389Z,25.08
2022-08-17T13:32:35.996Z,25.42
2022-08-17T13:35:32.226Z,25.40
2022-08-17T13:38:10.400Z,25.17
2022-08-17T13:40:44.894Z,25.21
2022-08-17T13:43:12.011Z,25.17
2022-08-17T13:45:50.649Z,25.02
2022-08-17T13:48:22.919Z,25.43
2022-08-17T13:51:14.153Z,25.79
2022-08-17T13:53:40.627Z,25.62
2022-08-17T13:56:31.769Z,25.83
2022-08-17T13:59:04.758Z,26.76
2022-08-17T14:01:40.382Z,26.29
2022-08-17T14:04:09.949Z,26.40
2022-08-17T14:06:57.823Z,25.97
2022-08-17T14:09:37.400Z,25.98
2022-08-17T14:12:10.619Z,26.70
2022-08-17T14:14:38.631Z,26.58
2022-08-17T14:17:05.285Z,26.26
2022-08-17T14:19:34.367Z,26.32
2022-08-17T14:22:01.169Z,26.49
2022-08-17T14:24:27.561Z,25.82
2022-08-17T14:26:54.291Z,26.05
2022-08-17T14:29:22.782Z,26.44
2022-08-17T14:31:54.439Z,26.15
2022-08-17T14:34:22.848Z,26.75
2022-08-17T14:36:49.784Z,26.28
2022-08-17T14:39:17.646Z,26.18
2022-08-17T14:41:44.690Z,26.00
2022-08-17T14:44:12.522Z,26.34
2022-08-17T14:46:40.850Z,26.11
2022-08-17T14:49:11.832Z,26.38
2022-08-17T14:51:43.872Z,26.40
2022-08-17T14:54:11.912Z,26.26
2022-08-17T14:57:22.419Z,26.99
2022-08-17T14:59:45.001Z,26.71
2022-08-17T15:02:11.907Z,26.90
2022-08-17T15:04:43.403Z,26.89
2022-08-17T15:07:11.935Z,27.45
2022-08-17T15:09:38.996Z,27.34
2022-08-17T15:12:08.458Z,26.94
2022-08-17T15:14:36.308Z,26.70
2022-08-17T15:17:03.737Z,28.76
2022-08-17T15:19:30.339Z,27.07
2022-08-17T15:21:56.813Z,27.11
2022-08-17T15:24:23.319Z,27.39
2022-08-17T15:26:49.917Z,27.45
2022-08-17T15:29:16.368Z,27.36
2022-08-17T15:31:43.419Z,27.02
2022-08-17T15:34:09.901Z,27.17
2022-08-17T15:36:37.031Z,27.28
2022-08-17T15:39:05.362Z,27.02
2022-08-17T15:41:31.998Z,27.14
2022-08-17T15:43:58.525Z,27.34
2022-08-17T15:46:26.474Z,28.28
2022-08-17T15:48:58.108Z,29.19
2022-08-17T15:51:28.386Z,30.98
2022-08-17T15:54:18.656Z,30.75
2022-08-17T15:56:46.399Z,30.34
2022-08-17T15:59:12.894Z,31.36
2022-08-17T16:03:14.687Z,31.59
2022-08-17T16:04:29.871Z,32.52
2022-08-17T16:06:57.937Z,32.52
2022-08-17T16:09:24.455Z,32.41
2022-08-17T16:11:52.133Z,33.32
2022-08-17T16:14:22.601Z,33.38
2022-08-17T16:16:50.661Z,33.13
2022-08-17T16:19:17.166Z,33.31
2022-08-17T16:21:43.651Z,33.39
2022-08-17T16:24:13.647Z,34.02
2022-08-17T16:26:42.139Z,34.41
2022-08-17T16:29:09.060Z,33.75
2022-08-17T16:31:37.560Z,34.22
2022-08-17T16:34:17.856Z,34.54
2022-08-17T16:36:50.566Z,35.44
2022-08-17T16:39:22.657Z,34.83
2022-08-17T16:41:50.228Z,35.40
2022-08-17T16:44:19.185Z,34.74
2022-08-17T16:46:47.572Z,35.15
2022-08-17T16:49:35.358Z,34.93
2022-08-17T16:52:03.218Z,34.48
2022-08-17T16:54:29.776Z,35.17
2022-08-17T16:56:56.262Z,35.26
2022-08-17T16:59:31.658Z,35.33
2022-08-17T17:02:12.804Z,35.84
2022-08-17T17:04:53.439Z,35.78
2022-08-17T17:07:34.908Z,35.82
2022-08-17T17:10:09.942Z,36.14
2022-08-17T17:13:03.469Z,37.26
2022-08-17T17:15:39.456Z,37.29
2022-08-17T17:18:12.037Z,37.09
2022-08-17T17:20:59.207Z,37.43
2022-08-17T17:23:37.720Z,37.40
2022-08-17T17:26:40.388Z,38.61
2022-08-17T17:29:25.209Z,38.81
2022-08-17T17:32:21.807Z,39.30
2022-08-17T17:34:54.129Z,39.28
2022-08-17T17:37:27.346Z,38.93
2022-08-17T17:39:59.110Z,39.57
2022-08-17T17:42:31.417Z,39.89
2022-08-17T17:45:04.954Z,41.18
2022-08-17T17:47:32.175Z,40.69
2022-08-17T17:50:00.924Z,40.67
2022-08-17T17:52:47.289Z,39.77
2022-08-17T17:55:26.363Z,41.73
2022-08-17T17:58:26.331Z,40.92
2022-08-17T18:01:33.244Z,41.51
2022-08-17T18:04:24.746Z,41.18
2022-08-17T18:06:57.651Z,41.79
2022-08-17T18:10:19.551Z,42.46
2022-08-17T18:13:09.090Z,42.65
2022-08-17T18:15:51.082Z,43.12
2022-08-17T18:18:17.501Z,42.90
2022-08-17T18:20:56.014Z,44.33
2022-08-17T18:23:28.139Z,46.36
2022-08-17T18:25:56.104Z,45.95
2022-08-17T18:28:36.053Z,44.66
2022-08-17T18:31:22.740Z,44.75
2022-08-17T18:33:54.741Z,44.53
2022-08-17T18:36:32.220Z,45.04
2022-08-17T18:39:14.331Z,45.11
2022-08-17T18:41:47.591Z,45.65
2022-08-17T18:44:38.001Z,45.86
2022-08-17T18:47:07.280Z,46.06
2022-08-17T18:49:34.890Z,46.54
2022-08-17T18:52:21.569Z,46.40
2022-08-17T18:55:21.606Z,47.17
2022-08-17T18:57:49.061Z,46.64
2022-08-17T19:00:42.712Z,46.41
2022-08-17T19:03:18.065Z,47.21
2022-08-17T19:05:56.160Z,47.46
2022-08-17T19:08:31.248Z,47.24
2022-08-17T19:11:24.858Z,47.09
2022-08-17T19:14:03.058Z,47.77
2022-08-17T19:16:43.970Z,47.56
2022-08-17T19:19:21.133Z,48.34
2022-08-17T19:21:53.031Z,49.06
2022-08-17T19:24:23.959Z,50.08
2022-08-17T19:26:56.817Z,50.06
2022-08-17T19:29:34.873Z,49.26
2022-08-17T19:32:01.815Z,49.38
2022-08-17T19:34:33.849Z,50.84
2022-08-17T19:37:13.819Z,50.87
2022-08-17T19:39:55.578Z,51.08
2022-08-17T19:42:42.418Z,49.76
2022-08-17T19:45:22.520Z,49.17
2022-08-17T19:48:07.376Z,48.44
2022-08-17T19:50:38.305Z,48.46
2022-08-17T19:53:36.874Z,48.97
2022-08-17T19:56:38.828Z,49.42
2022-08-17T19:59:08.111Z,49.12
2022-08-17T20:02:03.790Z,49.67
2022-08-17T20:04:32.511Z,49.64
2022-08-17T20:07:08.035Z,49.73
2022-08-17T20:09:40.906Z,50.21
2022-08-17T20:12:17.433Z,50.32
2022-08-17T20:14:55.057Z,50.45
2022-08-17T20:17:28.411Z,50.26
2022-08-17T20:20:02.525Z,50.68
2022-08-17T20:22:46.771Z,50.33
2022-08-17T20:25:31.019Z,51.13
2022-08-17T20:28:06.900Z,51.28
2022-08-17T20:30:41.986Z,51.41
2022-08-17T20:33:32.222Z,51.89
2022-08-17T20:36:25.776Z,52.35
2022-08-17T20:38:56.266Z,51.66
2022-08-17T20:41:29.815Z,52.20
2022-08-17T20:43:56.240Z,52.23
2022-08-17T20:46:38.126Z,52.35
2022-08-17T20:49:37.622Z,52.87
2022-08-17T20:52:10.904Z,52.58
2022-08-17T20:54:50.725Z,52.72
2022-08-17T20:57:32.288Z,52.98
2022-08-17T21:00:16.407Z,53.58
2022-08-17T21:02:49.705Z,53.92
2022-08-17T21:05:37.010Z,54.27
2022-08-17T21:08:16.471Z,54.61
2022-08-17T21:10:46.968Z,54.46
2022-08-17T21:13:13.497Z,54.69
2022-08-17T21:16:08.419Z,54.72
2022-08-17T21:18:45.720Z,54.64
2022-08-17T21:21:18.896Z,55.16
2022-08-17T21:23:48.066Z,55.57
2022-08-17T21:26:29.664Z,56.39
2022-08-17T21:29:30.290Z,55.83
2022-08-17T21:32:05.460Z,55.07
2022-08-17T21:35:06.292Z,55.14
2022-08-17T21:37:48.213Z,55.52
2022-08-17T21:40:17.943Z,56.97
2022-08-17T21:42:48.733Z,57.43
2022-08-17T21:45:42.894Z,58.10
2022-08-17T21:48:15.411Z,60.75
2022-08-17T21:50:45.770Z,59.62
2022-08-17T21:53:23.784Z,57.20
2022-08-17T21:55:51.461Z,56.63
2022-08-17T21:58:48.442Z,58.40
2022-08-17T22:01:34.846Z,62.00
2022-08-17T22:04:04.107Z,60.35
2022-08-17T22:06:43.119Z,62.18
2022-08-17T22:09:23.580Z,60.05
2022-08-17T22:12:17.814Z,58.43
2022-08-17T22:15:06.049Z,58.12
2022-08-17T22:17:35.373Z,57.71
2022-08-17T22:20:09.234Z,59.63
2022-08-17T22:22:58.267Z,59.30
2022-08-17T22:25:26.913Z,58.25
2022-08-17T22:28:00.126Z,58.25
2022-08-17T22:30:31.962Z,58.29
2022-08-17T22:33:00.427Z,58.87
2022-08-17T22:35:30.167Z,60.38
2022-08-17T22:37:57.387Z,58.50
2022-08-17T22:40:31.042Z,58.41
2022-08-17T22:43:00.505Z,58.54
2022-08-17T22:45:30.348Z,58.24
2022-08-17T22:48:00.215Z,58.56
2022-08-17T22:50:30.425Z,58.08
2022-08-17T22:53:33.461Z,58.21
2022-08-17T22:56:18.766Z,58.43
2022-08-17T22:59:16.159Z,58.65
2022-08-17T23:01:45.491Z,58.50
2022-08-17T23:04:30.369Z,59.15
2022-08-17T23:06:56.831Z,58.72
2022-08-17T23:09:23.491Z,59.12
2022-08-17T23:11:58.924Z,58.82
2022-08-17T23:17:16.354Z,59.14
2022-08-17T23:19:42.942Z,59.18
2022-08-17T23:22:11.034Z,59.26
2022-08-17T23:24:51.392Z,58.68
2022-08-17T23:27:19.140Z,59.18
2022-08-17T23:29:47.102Z,59.49
2022-08-17T23:32:16.995Z,59.85
2022-08-17T23:34:44.306Z,59.87
2022-08-17T23:37:12.081Z,59.17
2022-08-17T23:39:39.461Z,60.01
2022-08-17T23:42:08.702Z,58.97
2022-08-17T23:44:36.903Z,58.87
2022-08-17T23:47:04.814Z,58.67
2022-08-17T23:49:32.407Z,58.99
2022-08-17T23:52:01.717Z,58.68
2022-08-17T23:54:35.457Z,60.11
2022-08-17T23:57:04.666Z,59.09
2022-08-17T23:59:32.883Z,60.22
